sensor_id;sensor_type;location;lat;lon;timestamp;P1;durP1;ratioP1;P2;durP2;ratioP2
3177;SDS011;38141;42.666;23.344;2023-06-10T00:02:19;17.23;;;12.00;;
3177;SDS011;38141;42.666;23.344;2023-06-10T00:04:46;21.63;;;12.80;;
3177;SDS011;38141;42.666;23.344;2023-06-10T00:07:13;15.80;;;11.67;;
3177;SDS011;38141;42.666;23.344;2023-06-10T00:09:43;15.13;;;11.93;;
3177;SDS011;38141;42.666;23.344;2023-06-10T00:12:10;14.80;;;10.80;;
3177;SDS011;38141;42.666;23.344;2023-06-10T00:14:37;18.17;;;11.80;;
3177;SDS011;38141;42.666;23.344;2023-06-10T00:17:05;13.50;;;10.43;;
3177;SDS011;38141;42.666;23.344;2023-06-10T00:19:34;17.07;;;10.80;;
3177;SDS011;38141;42.666;23.344;2023-06-10T00:22:02;15.70;;;11.80;;
3177;SDS011;38141;42.666;23.344;2023-06-10T00:24:30;15.80;;;11.20;;
3177;SDS011;38141;42.666;23.344;2023-06-10T00:26:58;13.53;;;11.23;;
3177;SDS011;38141;42.666;23.344;2023-06-10T00:29:24;17.67;;;11.17;;
3177;SDS011;38141;42.666;23.344;2023-06-10T00:31:51;17.50;;;11.60;;
3177;SDS011;38141;42.666;23.344;2023-06-10T00:34:22;16.20;;;10.60;;
3177;SDS011;38141;42.666;23.344;2023-06-10T00:36:49;17.10;;;12.53;;
3177;SDS011;38141;42.666;23.344;2023-06-10T00:39:16;31.17;;;19.77;;
3177;SDS011;38141;42.666;23.344;2023-06-10T00:41:43;22.70;;;14.93;;
3177;SDS011;38141;42.666;23.344;2023-06-10T00:44:12;70.00;;;43.90;;
3177;SDS011;38141;42.666;23.344;2023-06-10T00:46:39;39.77;;;24.20;;
3177;SDS011;38141;42.666;23.344;2023-06-10T00:49:06;25.90;;;16.10;;
3177;SDS011;38141;42.666;23.344;2023-06-10T00:51:33;22.83;;;15.97;;
3177;SDS011;38141;42.666;23.344;2023-06-10T00:54:01;18.43;;;14.63;;
3177;SDS011;38141;42.666;23.344;2023-06-10T00:56:29;20.33;;;14.53;;
3177;SDS011;38141;42.666;23.344;2023-06-10T00:58:56;22.90;;;15.57;;
3177;SDS011;38141;42.666;23.344;2023-06-10T01:01:25;20.20;;;14.07;;
3177;SDS011;38141;42.666;23.344;2023-06-10T01:03:52;18.43;;;13.70;;
3177;SDS011;38141;42.666;23.344;2023-06-10T01:06:20;20.60;;;14.00;;
3177;SDS011;38141;42.666;23.344;2023-06-10T01:09:00;20.23;;;14.60;;
3177;SDS011;38141;42.666;23.344;2023-06-10T01:11:34;20.00;;;13.93;;
3177;SDS011;38141;42.666;23.344;2023-06-10T01:14:03;19.50;;;13.93;;
3177;SDS011;38141;42.666;23.344;2023-06-10T01:16:34;23.37;;;13.27;;
3177;SDS011;38141;42.666;23.344;2023-06-10T01:19:02;20.60;;;14.13;;
3177;SDS011;38141;42.666;23.344;2023-06-10T01:21:30;21.50;;;13.03;;
3177;SDS011;38141;42.666;23.344;2023-06-10T01:23:57;18.07;;;13.43;;
3177;SDS011;38141;42.666;23.344;2023-06-10T01:26:24;20.30;;;13.90;;
3177;SDS011;38141;42.666;23.344;2023-06-10T01:28:57;22.30;;;15.30;;
3177;SDS011;38141;42.666;23.344;2023-06-10T01:31:29;24.40;;;13.67;;
3177;SDS011;38141;42.666;23.344;2023-06-10T01:34:05;21.10;;;13.87;;
3177;SDS011;38141;42.666;23.344;2023-06-10T01:36:37;19.20;;;13.00;;
3177;SDS011;38141;42.666;23.344;2023-06-10T01:39:04;20.40;;;12.10;;
3177;SDS011;38141;42.666;23.344;2023-06-10T01:41:34;17.67;;;12.20;;
3177;SDS011;38141;42.666;23.344;2023-06-10T01:44:02;16.03;;;12.20;;
3177;SDS011;38141;42.666;23.344;2023-06-10T01:46:28;17.30;;;12.50;;
3177;SDS011;38141;42.666;23.344;2023-06-10T01:48:55;19.40;;;13.03;;
3177;SDS011;38141;42.666;23.344;2023-06-10T01:51:22;19.03;;;13.20;;
3177;SDS011;38141;42.666;23.344;2023-06-10T01:53:50;17.93;;;12.67;;
3177;SDS011;38141;42.666;23.344;2023-06-10T01:56:17;22.03;;;13.87;;
3177;SDS011;38141;42.666;23.344;2023-06-10T01:58:45;18.50;;;13.00;;
3177;SDS011;38141;42.666;23.344;2023-06-10T02:01:12;18.20;;;12.30;;
3177;SDS011;38141;42.666;23.344;2023-06-10T02:03:39;17.00;;;12.87;;
3177;SDS011;38141;42.666;23.344;2023-06-10T02:06:06;20.67;;;12.67;;
3177;SDS011;38141;42.666;23.344;2023-06-10T02:08:33;16.27;;;12.60;;
3177;SDS011;38141;42.666;23.344;2023-06-10T02:11:01;16.03;;;11.70;;
3177;SDS011;38141;42.666;23.344;2023-06-10T02:13:29;15.63;;;11.63;;
3177;SDS011;38141;42.666;23.344;2023-06-10T02:15:56;19.43;;;12.80;;
3177;SDS011;38141;42.666;23.344;2023-06-10T02:18:23;14.03;;;10.83;;
3177;SDS011;38141;42.666;23.344;2023-06-10T02:20:52;19.70;;;11.87;;
3177;SDS011;38141;42.666;23.344;2023-06-10T02:23:19;19.80;;;12.60;;
3177;SDS011;38141;42.666;23.344;2023-06-10T02:25:46;17.43;;;13.00;;
3177;SDS011;38141;42.666;23.344;2023-06-10T02:28:14;21.83;;;13.57;;
3177;SDS011;38141;42.666;23.344;2023-06-10T02:30:41;18.80;;;12.70;;
3177;SDS011;38141;42.666;23.344;2023-06-10T02:33:09;18.50;;;13.00;;
3177;SDS011;38141;42.666;23.344;2023-06-10T02:35:36;17.33;;;12.43;;
3177;SDS011;38141;42.666;23.344;2023-06-10T02:38:03;16.77;;;11.63;;
3177;SDS011;38141;42.666;23.344;2023-06-10T02:40:30;19.63;;;12.53;;
3177;SDS011;38141;42.666;23.344;2023-06-10T02:42:57;19.40;;;12.83;;
3177;SDS011;38141;42.666;23.344;2023-06-10T02:45:25;17.10;;;12.77;;
3177;SDS011;38141;42.666;23.344;2023-06-10T02:47:52;19.10;;;12.47;;
3177;SDS011;38141;42.666;23.344;2023-06-10T02:50:19;15.20;;;12.40;;
3177;SDS011;38141;42.666;23.344;2023-06-10T02:52:46;20.83;;;12.53;;
3177;SDS011;38141;42.666;23.344;2023-06-10T02:55:13;21.70;;;12.90;;
3177;SDS011;38141;42.666;23.344;2023-06-10T02:57:40;17.67;;;12.70;;
3177;SDS011;38141;42.666;23.344;2023-06-10T03:00:07;18.03;;;11.60;;
3177;SDS011;38141;42.666;23.344;2023-06-10T03:02:37;18.00;;;12.40;;
3177;SDS011;38141;42.666;23.344;2023-06-10T03:05:05;19.00;;;12.80;;
3177;SDS011;38141;42.666;23.344;2023-06-10T03:07:35;16.83;;;11.00;;
3177;SDS011;38141;42.666;23.344;2023-06-10T03:10:02;17.57;;;11.67;;
3177;SDS011;38141;42.666;23.344;2023-06-10T03:12:29;20.67;;;11.90;;
3177;SDS011;38141;42.666;23.344;2023-06-10T03:14:56;16.77;;;11.90;;
3177;SDS011;38141;42.666;23.344;2023-06-10T03:17:23;17.00;;;12.70;;
3177;SDS011;38141;42.666;23.344;2023-06-10T03:19:51;19.67;;;12.63;;
3177;SDS011;38141;42.666;23.344;2023-06-10T03:22:18;15.47;;;11.93;;
3177;SDS011;38141;42.666;23.344;2023-06-10T03:24:45;15.47;;;11.63;;
3177;SDS011;38141;42.666;23.344;2023-06-10T03:27:15;16.87;;;12.63;;
3177;SDS011;38141;42.666;23.344;2023-06-10T03:29:42;19.43;;;13.50;;
3177;SDS011;38141;42.666;23.344;2023-06-10T03:32:09;16.43;;;11.97;;
3177;SDS011;38141;42.666;23.344;2023-06-10T03:34:36;14.47;;;11.67;;
3177;SDS011;38141;42.666;23.344;2023-06-10T03:37:05;16.07;;;12.37;;
3177;SDS011;38141;42.666;23.344;2023-06-10T03:39:32;18.13;;;12.37;;
3177;SDS011;38141;42.666;23.344;2023-06-10T03:41:59;18.53;;;11.90;;
3177;SDS011;38141;42.666;23.344;2023-06-10T03:44:26;18.67;;;13.33;;
3177;SDS011;38141;42.666;23.344;2023-06-10T03:46:53;18.50;;;12.47;;
3177;SDS011;38141;42.666;23.344;2023-06-10T03:49:22;14.20;;;11.90;;
3177;SDS011;38141;42.666;23.344;2023-06-10T03:51:52;17.93;;;12.53;;
3177;SDS011;38141;42.666;23.344;2023-06-10T03:54:20;16.00;;;12.70;;
3177;SDS011;38141;42.666;23.344;2023-06-10T03:56:47;18.10;;;13.20;;
3177;SDS011;38141;42.666;23.344;2023-06-10T03:59:14;18.90;;;13.60;;
3177;SDS011;38141;42.666;23.344;2023-06-10T04:01:41;18.93;;;13.43;;
3177;SDS011;38141;42.666;23.344;2023-06-10T04:04:09;19.43;;;13.37;;
3177;SDS011;38141;42.666;23.344;2023-06-10T04:06:36;18.23;;;13.00;;
3177;SDS011;38141;42.666;23.344;2023-06-10T04:09:03;16.30;;;11.93;;
3177;SDS011;38141;42.666;23.344;2023-06-10T04:11:34;20.83;;;13.63;;
3177;SDS011;38141;42.666;23.344;2023-06-10T04:14:04;19.07;;;12.80;;
3177;SDS011;38141;42.666;23.344;2023-06-10T04:16:31;17.53;;;12.63;;
3177;SDS011;38141;42.666;23.344;2023-06-10T04:18:59;19.47;;;13.90;;
3177;SDS011;38141;42.666;23.344;2023-06-10T04:21:26;19.30;;;13.87;;
3177;SDS011;38141;42.666;23.344;2023-06-10T04:23:53;18.70;;;13.97;;
3177;SDS011;38141;42.666;23.344;2023-06-10T04:26:20;29.03;;;21.20;;
3177;SDS011;38141;42.666;23.344;2023-06-10T04:31:18;15.40;;;12.70;;
3177;SDS011;38141;42.666;23.344;2023-06-10T04:33:45;17.20;;;11.80;;
3177;SDS011;38141;42.666;23.344;2023-06-10T04:36:12;18.47;;;14.50;;
3177;SDS011;38141;42.666;23.344;2023-06-10T04:38:39;16.37;;;12.50;;
3177;SDS011;38141;42.666;23.344;2023-06-10T04:41:07;18.90;;;15.10;;
3177;SDS011;38141;42.666;23.344;2023-06-10T04:43:33;15.10;;;11.40;;
3177;SDS011;38141;42.666;23.344;2023-06-10T04:46:02;16.13;;;11.37;;
3177;SDS011;38141;42.666;23.344;2023-06-10T04:48:29;14.43;;;10.67;;
3177;SDS011;38141;42.666;23.344;2023-06-10T04:50:56;12.53;;;9.90;;
3177;SDS011;38141;42.666;23.344;2023-06-10T04:53:23;14.27;;;12.10;;
3177;SDS011;38141;42.666;23.344;2023-06-10T04:55:50;16.40;;;11.87;;
3177;SDS011;38141;42.666;23.344;2023-06-10T04:58:17;18.13;;;11.10;;
3177;SDS011;38141;42.666;23.344;2023-06-10T05:00:44;14.43;;;11.30;;
3177;SDS011;38141;42.666;23.344;2023-06-10T05:03:12;15.30;;;11.50;;
3177;SDS011;38141;42.666;23.344;2023-06-10T05:05:39;15.23;;;11.13;;
3177;SDS011;38141;42.666;23.344;2023-06-10T05:08:06;14.73;;;10.77;;
3177;SDS011;38141;42.666;23.344;2023-06-10T05:10:33;17.00;;;11.07;;
3177;SDS011;38141;42.666;23.344;2023-06-10T05:13:02;14.23;;;12.00;;
3177;SDS011;38141;42.666;23.344;2023-06-10T05:15:35;17.40;;;12.50;;
3177;SDS011;38141;42.666;23.344;2023-06-10T05:18:09;14.87;;;11.57;;
3177;SDS011;38141;42.666;23.344;2023-06-10T05:20:38;16.43;;;12.30;;
3177;SDS011;38141;42.666;23.344;2023-06-10T05:23:07;14.50;;;12.00;;
3177;SDS011;38141;42.666;23.344;2023-06-10T05:25:48;16.00;;;12.50;;
3177;SDS011;38141;42.666;23.344;2023-06-10T05:28:19;18.00;;;12.10;;
3177;SDS011;38141;42.666;23.344;2023-06-10T05:31:03;19.77;;;14.37;;
3177;SDS011;38141;42.666;23.344;2023-06-10T05:34:03;21.53;;;13.10;;
3177;SDS011;38141;42.666;23.344;2023-06-10T05:36:49;16.43;;;12.50;;
3177;SDS011;38141;42.666;23.344;2023-06-10T05:39:19;18.97;;;13.63;;
3177;SDS011;38141;42.666;23.344;2023-06-10T05:42:00;19.47;;;14.17;;
3177;SDS011;38141;42.666;23.344;2023-06-10T05:44:29;22.73;;;15.13;;
3177;SDS011;38141;42.666;23.344;2023-06-10T05:46:58;21.67;;;13.87;;
3177;SDS011;38141;42.666;23.344;2023-06-10T05:49:42;19.13;;;14.60;;
3177;SDS011;38141;42.666;23.344;2023-06-10T05:52:27;22.90;;;14.33;;
3177;SDS011;38141;42.666;23.344;2023-06-10T05:54:54;22.10;;;14.67;;
3177;SDS011;38141;42.666;23.344;2023-06-10T05:57:21;23.57;;;13.90;;
3177;SDS011;38141;42.666;23.344;2023-06-10T05:59:48;18.30;;;13.87;;
3177;SDS011;38141;42.666;23.344;2023-06-10T06:02:15;20.73;;;14.50;;
3177;SDS011;38141;42.666;23.344;2023-06-10T06:04:42;23.20;;;13.60;;
3177;SDS011;38141;42.666;23.344;2023-06-10T06:07:09;22.63;;;13.73;;
3177;SDS011;38141;42.666;23.344;2023-06-10T06:12:47;20.13;;;13.40;;
3177;SDS011;38141;42.666;23.344;2023-06-10T06:15:14;20.90;;;13.20;;
3177;SDS011;38141;42.666;23.344;2023-06-10T06:17:47;20.30;;;13.97;;
3177;SDS011;38141;42.666;23.344;2023-06-10T06:20:14;16.17;;;12.70;;
3177;SDS011;38141;42.666;23.344;2023-06-10T06:22:44;18.00;;;10.80;;
3177;SDS011;38141;42.666;23.344;2023-06-10T06:25:11;15.37;;;9.77;;
3177;SDS011;38141;42.666;23.344;2023-06-10T06:27:37;16.90;;;10.30;;
3177;SDS011;38141;42.666;23.344;2023-06-10T06:30:07;12.90;;;10.17;;
3177;SDS011;38141;42.666;23.344;2023-06-10T06:32:35;15.67;;;10.60;;
3177;SDS011;38141;42.666;23.344;2023-06-10T06:35:02;15.83;;;10.23;;
3177;SDS011;38141;42.666;23.344;2023-06-10T06:37:31;16.43;;;10.20;;
3177;SDS011;38141;42.666;23.344;2023-06-10T06:39:58;12.93;;;9.90;;
3177;SDS011;38141;42.666;23.344;2023-06-10T06:42:25;14.70;;;9.57;;
3177;SDS011;38141;42.666;23.344;2023-06-10T06:44:51;15.87;;;9.47;;
3177;SDS011;38141;42.666;23.344;2023-06-10T06:47:20;14.07;;;8.93;;
3177;SDS011;38141;42.666;23.344;2023-06-10T06:49:46;18.40;;;9.63;;
3177;SDS011;38141;42.666;23.344;2023-06-10T06:52:14;27.73;;;12.93;;
3177;SDS011;38141;42.666;23.344;2023-06-10T06:54:41;16.40;;;10.73;;
3177;SDS011;38141;42.666;23.344;2023-06-10T06:57:08;13.20;;;10.73;;
3177;SDS011;38141;42.666;23.344;2023-06-10T06:59:35;12.73;;;9.40;;
3177;SDS011;38141;42.666;23.344;2023-06-10T07:02:03;14.87;;;8.90;;
3177;SDS011;38141;42.666;23.344;2023-06-10T07:04:31;11.33;;;9.23;;
3177;SDS011;38141;42.666;23.344;2023-06-10T07:06:58;11.87;;;7.70;;
3177;SDS011;38141;42.666;23.344;2023-06-10T07:09:25;17.27;;;8.30;;
3177;SDS011;38141;42.666;23.344;2023-06-10T07:11:53;12.47;;;7.70;;
3177;SDS011;38141;42.666;23.344;2023-06-10T07:14:20;12.03;;;8.40;;
3177;SDS011;38141;42.666;23.344;2023-06-10T07:16:46;10.60;;;8.17;;
3177;SDS011;38141;42.666;23.344;2023-06-10T07:19:14;9.63;;;7.43;;
3177;SDS011;38141;42.666;23.344;2023-06-10T07:21:45;12.70;;;7.67;;
3177;SDS011;38141;42.666;23.344;2023-06-10T07:24:12;9.63;;;6.57;;
3177;SDS011;38141;42.666;23.344;2023-06-10T07:26:40;10.75;;;7.03;;
3177;SDS011;38141;42.666;23.344;2023-06-10T07:29:07;9.80;;;7.20;;
3177;SDS011;38141;42.666;23.344;2023-06-10T07:31:34;8.95;;;7.20;;
3177;SDS011;38141;42.666;23.344;2023-06-10T07:34:01;9.82;;;6.75;;
3177;SDS011;38141;42.666;23.344;2023-06-10T07:36:27;11.88;;;7.70;;
3177;SDS011;38141;42.666;23.344;2023-06-10T07:38:56;10.93;;;7.60;;
3177;SDS011;38141;42.666;23.344;2023-06-10T07:41:23;11.93;;;7.68;;
3177;SDS011;38141;42.666;23.344;2023-06-10T07:43:51;9.02;;;6.85;;
3177;SDS011;38141;42.666;23.344;2023-06-10T07:46:19;7.93;;;6.82;;
3177;SDS011;38141;42.666;23.344;2023-06-10T07:48:47;10.63;;;6.47;;
3177;SDS011;38141;42.666;23.344;2023-06-10T07:51:15;6.40;;;5.72;;
3177;SDS011;38141;42.666;23.344;2023-06-10T07:53:58;9.63;;;6.55;;
3177;SDS011;38141;42.666;23.344;2023-06-10T07:56:26;7.25;;;5.90;;
3177;SDS011;38141;42.666;23.344;2023-06-10T07:58:53;8.10;;;5.60;;
3177;SDS011;38141;42.666;23.344;2023-06-10T08:01:20;7.53;;;5.47;;
3177;SDS011;38141;42.666;23.344;2023-06-10T08:03:56;7.00;;;5.65;;
3177;SDS011;38141;42.666;23.344;2023-06-10T08:06:23;10.52;;;5.90;;
3177;SDS011;38141;42.666;23.344;2023-06-10T08:08:50;6.05;;;4.55;;
3177;SDS011;38141;42.666;23.344;2023-06-10T08:11:32;12.70;;;5.68;;
3177;SDS011;38141;42.666;23.344;2023-06-10T08:13:59;11.07;;;5.03;;
3177;SDS011;38141;42.666;23.344;2023-06-10T08:16:26;5.43;;;4.75;;
3177;SDS011;38141;42.666;23.344;2023-06-10T08:18:53;6.07;;;5.13;;
3177;SDS011;38141;42.666;23.344;2023-06-10T08:21:20;8.68;;;5.10;;
3177;SDS011;38141;42.666;23.344;2023-06-10T08:23:53;6.00;;;5.03;;
3177;SDS011;38141;42.666;23.344;2023-06-10T08:29:44;5.78;;;4.03;;
3177;SDS011;38141;42.666;23.344;2023-06-10T08:32:11;7.70;;;4.05;;
3177;SDS011;38141;42.666;23.344;2023-06-10T08:34:38;5.00;;;3.22;;
3177;SDS011;38141;42.666;23.344;2023-06-10T08:37:08;5.45;;;3.42;;
3177;SDS011;38141;42.666;23.344;2023-06-10T08:39:35;6.75;;;4.13;;
3177;SDS011;38141;42.666;23.344;2023-06-10T08:42:05;5.25;;;3.35;;
3177;SDS011;38141;42.666;23.344;2023-06-10T08:44:39;4.22;;;3.83;;
3177;SDS011;38141;42.666;23.344;2023-06-10T08:47:10;7.30;;;3.90;;
3177;SDS011;38141;42.666;23.344;2023-06-10T08:49:41;4.72;;;4.07;;
3177;SDS011;38141;42.666;23.344;2023-06-10T08:52:10;4.65;;;4.03;;
3177;SDS011;38141;42.666;23.344;2023-06-10T08:54:41;5.93;;;4.47;;
3177;SDS011;38141;42.666;23.344;2023-06-10T08:57:09;4.43;;;4.00;;
3177;SDS011;38141;42.666;23.344;2023-06-10T08:59:36;4.22;;;3.70;;
3177;SDS011;38141;42.666;23.344;2023-06-10T09:02:05;6.18;;;3.42;;
3177;SDS011;38141;42.666;23.344;2023-06-10T09:04:35;4.30;;;3.90;;
3177;SDS011;38141;42.666;23.344;2023-06-10T09:07:02;4.10;;;3.70;;
3177;SDS011;38141;42.666;23.344;2023-06-10T09:09:30;6.38;;;4.35;;
3177;SDS011;38141;42.666;23.344;2023-06-10T09:11:58;6.68;;;4.50;;
3177;SDS011;38141;42.666;23.344;2023-06-10T09:14:25;6.25;;;4.32;;
3177;SDS011;38141;42.666;23.344;2023-06-10T09:16:52;6.05;;;4.18;;
3177;SDS011;38141;42.666;23.344;2023-06-10T09:19:23;4.55;;;4.15;;
3177;SDS011;38141;42.666;23.344;2023-06-10T09:21:50;5.85;;;3.60;;
3177;SDS011;38141;42.666;23.344;2023-06-10T09:24:17;3.88;;;3.47;;
3177;SDS011;38141;42.666;23.344;2023-06-10T09:26:44;4.03;;;3.33;;
3177;SDS011;38141;42.666;23.344;2023-06-10T09:29:11;6.47;;;3.90;;
3177;SDS011;38141;42.666;23.344;2023-06-10T09:31:38;3.97;;;3.55;;
3177;SDS011;38141;42.666;23.344;2023-06-10T09:34:06;3.80;;;3.20;;
3177;SDS011;38141;42.666;23.344;2023-06-10T09:36:35;6.25;;;3.53;;
3177;SDS011;38141;42.666;23.344;2023-06-10T09:39:03;4.70;;;3.28;;
3177;SDS011;38141;42.666;23.344;2023-06-10T09:41:34;3.92;;;3.53;;
3177;SDS011;38141;42.666;23.344;2023-06-10T09:44:01;3.60;;;3.30;;
3177;SDS011;38141;42.666;23.344;2023-06-10T09:46:30;4.35;;;3.45;;
3177;SDS011;38141;42.666;23.344;2023-06-10T09:48:58;3.85;;;3.45;;
3177;SDS011;38141;42.666;23.344;2023-06-10T09:51:25;4.88;;;3.78;;
3177;SDS011;38141;42.666;23.344;2023-06-10T09:53:53;4.63;;;4.13;;
3177;SDS011;38141;42.666;23.344;2023-06-10T09:56:20;10.23;;;3.60;;
3177;SDS011;38141;42.666;23.344;2023-06-10T09:58:49;3.70;;;3.38;;
3177;SDS011;38141;42.666;23.344;2023-06-10T10:01:19;3.55;;;3.20;;
3177;SDS011;38141;42.666;23.344;2023-06-10T10:03:46;4.82;;;3.60;;
3177;SDS011;38141;42.666;23.344;2023-06-10T10:06:14;4.82;;;3.97;;
3177;SDS011;38141;42.666;23.344;2023-06-10T10:08:41;4.78;;;4.00;;
3177;SDS011;38141;42.666;23.344;2023-06-10T10:11:10;46.78;;;35.72;;
3177;SDS011;38141;42.666;23.344;2023-06-10T10:13:38;3.85;;;3.53;;
3177;SDS011;38141;42.666;23.344;2023-06-10T10:16:07;7.30;;;5.82;;
3177;SDS011;38141;42.666;23.344;2023-06-10T10:18:38;6.22;;;4.20;;
3177;SDS011;38141;42.666;23.344;2023-06-10T10:21:11;4.20;;;3.80;;
3177;SDS011;38141;42.666;23.344;2023-06-10T10:23:40;5.38;;;2.85;;
3177;SDS011;38141;42.666;23.344;2023-06-10T10:26:13;5.40;;;3.45;;
3177;SDS011;38141;42.666;23.344;2023-06-10T10:28:41;4.50;;;3.30;;
3177;SDS011;38141;42.666;23.344;2023-06-10T10:31:11;5.00;;;3.15;;
3177;SDS011;38141;42.666;23.344;2023-06-10T10:33:45;3.85;;;3.50;;
3177;SDS011;38141;42.666;23.344;2023-06-10T10:36:19;5.45;;;3.65;;
3177;SDS011;38141;42.666;23.344;2023-06-10T10:38:45;4.32;;;3.42;;
3177;SDS011;38141;42.666;23.344;2023-06-10T10:41:15;5.18;;;4.20;;
3177;SDS011;38141;42.666;23.344;2023-06-10T10:43:44;5.28;;;3.40;;
3177;SDS011;38141;42.666;23.344;2023-06-10T10:46:13;4.07;;;3.58;;
3177;SDS011;38141;42.666;23.344;2023-06-10T10:48:41;3.63;;;3.25;;
3177;SDS011;38141;42.666;23.344;2023-06-10T10:51:09;17.02;;;10.68;;
3177;SDS011;38141;42.666;23.344;2023-06-10T10:53:36;9.77;;;8.70;;
3177;SDS011;38141;42.666;23.344;2023-06-10T10:56:04;4.47;;;4.00;;
3177;SDS011;38141;42.666;23.344;2023-06-10T10:58:33;5.72;;;4.13;;
3177;SDS011;38141;42.666;23.344;2023-06-10T11:01:00;5.43;;;4.65;;
3177;SDS011;38141;42.666;23.344;2023-06-10T11:03:42;5.85;;;4.70;;
3177;SDS011;38141;42.666;23.344;2023-06-10T11:06:12;6.95;;;4.65;;
3177;SDS011;38141;42.666;23.344;2023-06-10T11:08:46;21.15;;;12.85;;
3177;SDS011;38141;42.666;23.344;2023-06-10T11:11:19;5.68;;;4.63;;
3177;SDS011;38141;42.666;23.344;2023-06-10T11:14:04;4.22;;;3.83;;
3177;SDS011;38141;42.666;23.344;2023-06-10T11:16:38;10.07;;;7.13;;
3177;SDS011;38141;42.666;23.344;2023-06-10T11:19:06;10.23;;;8.48;;
3177;SDS011;38141;42.666;23.344;2023-06-10T11:21:37;5.95;;;4.47;;
3177;SDS011;38141;42.666;23.344;2023-06-10T11:24:23;5.97;;;4.40;;
3177;SDS011;38141;42.666;23.344;2023-06-10T11:26:50;5.20;;;4.57;;
3177;SDS011;38141;42.666;23.344;2023-06-10T11:29:18;8.80;;;4.75;;
3177;SDS011;38141;42.666;23.344;2023-06-10T11:31:46;4.80;;;4.30;;
3177;SDS011;38141;42.666;23.344;2023-06-10T11:34:20;4.85;;;4.22;;
3177;SDS011;38141;42.666;23.344;2023-06-10T11:36:50;6.13;;;4.70;;
3177;SDS011;38141;42.666;23.344;2023-06-10T11:39:18;4.70;;;4.18;;
3177;SDS011;38141;42.666;23.344;2023-06-10T11:41:46;8.18;;;5.05;;
3177;SDS011;38141;42.666;23.344;2023-06-10T11:44:14;8.68;;;7.68;;
3177;SDS011;38141;42.666;23.344;2023-06-10T11:46:42;10.00;;;9.00;;
3177;SDS011;38141;42.666;23.344;2023-06-10T11:49:11;6.63;;;5.28;;
3177;SDS011;38141;42.666;23.344;2023-06-10T11:51:38;6.40;;;5.30;;
3177;SDS011;38141;42.666;23.344;2023-06-10T11:54:08;9.10;;;5.65;;
3177;SDS011;38141;42.666;23.344;2023-06-10T11:56:35;9.27;;;4.93;;
3177;SDS011;38141;42.666;23.344;2023-06-10T11:59:02;5.40;;;4.85;;
3177;SDS011;38141;42.666;23.344;2023-06-10T12:01:31;4.93;;;4.43;;
3177;SDS011;38141;42.666;23.344;2023-06-10T12:04:01;7.70;;;5.68;;
3177;SDS011;38141;42.666;23.344;2023-06-10T12:06:39;10.88;;;5.28;;
3177;SDS011;38141;42.666;23.344;2023-06-10T12:09:13;9.05;;;4.85;;
3177;SDS011;38141;42.666;23.344;2023-06-10T12:11:41;4.90;;;4.40;;
3177;SDS011;38141;42.666;23.344;2023-06-10T12:14:09;7.75;;;5.40;;
3177;SDS011;38141;42.666;23.344;2023-06-10T12:16:36;4.65;;;4.25;;
3177;SDS011;38141;42.666;23.344;2023-06-10T12:19:04;4.60;;;4.20;;
3177;SDS011;38141;42.666;23.344;2023-06-10T12:21:32;5.00;;;4.40;;
3177;SDS011;38141;42.666;23.344;2023-06-10T12:24:04;4.80;;;4.07;;
3177;SDS011;38141;42.666;23.344;2023-06-10T12:26:39;5.70;;;4.28;;
3177;SDS011;38141;42.666;23.344;2023-06-10T12:29:19;6.60;;;4.82;;
3177;SDS011;38141;42.666;23.344;2023-06-10T12:31:56;4.18;;;3.55;;
3177;SDS011;38141;42.666;23.344;2023-06-10T12:34:30;4.07;;;3.63;;
3177;SDS011;38141;42.666;23.344;2023-06-10T12:37:01;3.75;;;3.22;;
3177;SDS011;38141;42.666;23.344;2023-06-10T12:39:29;4.55;;;3.85;;
3177;SDS011;38141;42.666;23.344;2023-06-10T12:41:57;6.15;;;3.80;;
3177;SDS011;38141;42.666;23.344;2023-06-10T12:44:30;5.35;;;4.40;;
3177;SDS011;38141;42.666;23.344;2023-06-10T12:46:58;5.10;;;3.95;;
3177;SDS011;38141;42.666;23.344;2023-06-10T12:49:25;4.68;;;4.15;;
3177;SDS011;38141;42.666;23.344;2023-06-10T12:51:54;5.07;;;4.57;;
3177;SDS011;38141;42.666;23.344;2023-06-10T12:54:21;5.47;;;4.43;;
3177;SDS011;38141;42.666;23.344;2023-06-10T12:56:48;4.38;;;3.97;;
3177;SDS011;38141;42.666;23.344;2023-06-10T12:59:15;9.93;;;4.72;;
3177;SDS011;38141;42.666;23.344;2023-06-10T13:01:42;15.57;;;11.32;;
3177;SDS011;38141;42.666;23.344;2023-06-10T13:04:08;21.45;;;14.98;;
3177;SDS011;38141;42.666;23.344;2023-06-10T13:06:35;6.28;;;4.50;;
3177;SDS011;38141;42.666;23.344;2023-06-10T13:09:05;6.40;;;4.60;;
3177;SDS011;38141;42.666;23.344;2023-06-10T13:11:35;5.85;;;3.88;;
3177;SDS011;38141;42.666;23.344;2023-06-10T13:14:04;6.03;;;4.60;;
3177;SDS011;38141;42.666;23.344;2023-06-10T13:16:31;5.50;;;3.90;;
3177;SDS011;38141;42.666;23.344;2023-06-10T13:18:58;3.83;;;3.42;;
3177;SDS011;38141;42.666;23.344;2023-06-10T13:21:25;8.20;;;4.10;;
3177;SDS011;38141;42.666;23.344;2023-06-10T13:23:52;6.88;;;3.95;;
3177;SDS011;38141;42.666;23.344;2023-06-10T13:26:20;7.43;;;4.03;;
3177;SDS011;38141;42.666;23.344;2023-06-10T13:28:47;5.88;;;4.00;;
3177;SDS011;38141;42.666;23.344;2023-06-10T13:31:14;5.53;;;4.40;;
3177;SDS011;38141;42.666;23.344;2023-06-10T13:33:41;5.68;;;4.45;;
3177;SDS011;38141;42.666;23.344;2023-06-10T13:36:08;7.65;;;4.53;;
3177;SDS011;38141;42.666;23.344;2023-06-10T13:38:35;5.57;;;4.97;;
3177;SDS011;38141;42.666;23.344;2023-06-10T13:41:02;5.63;;;4.75;;
3177;SDS011;38141;42.666;23.344;2023-06-10T13:43:30;6.95;;;5.30;;
3177;SDS011;38141;42.666;23.344;2023-06-10T13:45:57;9.23;;;5.90;;
3177;SDS011;38141;42.666;23.344;2023-06-10T13:48:24;9.23;;;4.85;;
3177;SDS011;38141;42.666;23.344;2023-06-10T13:50:50;15.85;;;9.50;;
3177;SDS011;38141;42.666;23.344;2023-06-10T13:53:17;10.35;;;7.78;;
3177;SDS011;38141;42.666;23.344;2023-06-10T13:55:44;5.43;;;4.93;;
3177;SDS011;38141;42.666;23.344;2023-06-10T13:58:11;6.88;;;5.38;;
3177;SDS011;38141;42.666;23.344;2023-06-10T14:00:39;10.70;;;5.18;;
3177;SDS011;38141;42.666;23.344;2023-06-10T14:03:06;6.10;;;5.22;;
3177;SDS011;38141;42.666;23.344;2023-06-10T14:05:33;6.55;;;4.85;;
3177;SDS011;38141;42.666;23.344;2023-06-10T14:08:00;7.35;;;5.22;;
3177;SDS011;38141;42.666;23.344;2023-06-10T14:10:27;6.82;;;5.15;;
3177;SDS011;38141;42.666;23.344;2023-06-10T14:12:53;5.90;;;4.90;;
3177;SDS011;38141;42.666;23.344;2023-06-10T14:15:20;7.80;;;5.53;;
3177;SDS011;38141;42.666;23.344;2023-06-10T14:17:49;5.10;;;4.60;;
3177;SDS011;38141;42.666;23.344;2023-06-10T14:20:16;6.28;;;5.40;;
3177;SDS011;38141;42.666;23.344;2023-06-10T14:22:43;7.25;;;5.10;;
3177;SDS011;38141;42.666;23.344;2023-06-10T14:25:09;9.68;;;7.22;;
3177;SDS011;38141;42.666;23.344;2023-06-10T14:27:37;18.15;;;12.90;;
3177;SDS011;38141;42.666;23.344;2023-06-10T14:30:04;6.75;;;4.45;;
3177;SDS011;38141;42.666;23.344;2023-06-10T14:32:32;5.95;;;5.25;;
3177;SDS011;38141;42.666;23.344;2023-06-10T14:35:00;13.73;;;8.80;;
3177;SDS011;38141;42.666;23.344;2023-06-10T14:37:26;6.93;;;5.20;;
3177;SDS011;38141;42.666;23.344;2023-06-10T14:39:53;6.93;;;4.70;;
3177;SDS011;38141;42.666;23.344;2023-06-10T14:42:20;8.52;;;7.25;;
3177;SDS011;38141;42.666;23.344;2023-06-10T14:44:46;7.60;;;5.15;;
3177;SDS011;38141;42.666;23.344;2023-06-10T14:47:14;21.42;;;16.02;;
3177;SDS011;38141;42.666;23.344;2023-06-10T14:49:41;11.27;;;8.60;;
3177;SDS011;38141;42.666;23.344;2023-06-10T14:52:19;8.55;;;5.20;;